sensor_id;sensor_type;location;lat;lon;timestamp;P1;durP1;ratioP1;P2;durP2;ratioP2
29196;SDS011;62796;42.654;23.316;2022-11-09T00:00:30;51.72;;;29.55;;
29196;SDS011;62796;42.654;23.316;2022-11-09T00:02:56;50.50;;;30.05;;
29196;SDS011;62796;42.654;23.316;2022-11-09T00:05:21;51.38;;;29.88;;
29196;SDS011;62796;42.654;23.316;2022-11-09T00:07:46;54.55;;;29.70;;
29196;SDS011;62796;42.654;23.316;2022-11-09T00:10:12;51.55;;;29.52;;
29196;SDS011;62796;42.654;23.316;2022-11-09T00:12:37;51.00;;;29.67;;
29196;SDS011;62796;42.654;23.316;2022-11-09T00:15:03;49.53;;;29.13;;
29196;SDS011;62796;42.654;23.316;2022-11-09T00:17:29;48.35;;;28.98;;
29196;SDS011;62796;42.654;23.316;2022-11-09T00:19:54;48.92;;;28.90;;
29196;SDS011;62796;42.654;23.316;2022-11-09T00:22:19;53.65;;;31.73;;
29196;SDS011;62796;42.654;23.316;2022-11-09T00:24:45;51.97;;;29.85;;
29196;SDS011;62796;42.654;23.316;2022-11-09T00:27:10;46.03;;;29.33;;
29196;SDS011;62796;42.654;23.316;2022-11-09T00:29:35;47.30;;;29.63;;
29196;SDS011;62796;42.654;23.316;2022-11-09T00:32:01;48.97;;;29.77;;
29196;SDS011;62796;42.654;23.316;2022-11-09T00:34:26;48.97;;;29.15;;
29196;SDS011;62796;42.654;23.316;2022-11-09T00:36:52;53.80;;;32.67;;
29196;SDS011;62796;42.654;23.316;2022-11-09T00:39:17;50.75;;;29.25;;
29196;SDS011;62796;42.654;23.316;2022-11-09T00:41:42;46.80;;;27.38;;
29196;SDS011;62796;42.654;23.316;2022-11-09T00:44:08;43.63;;;28.17;;
29196;SDS011;62796;42.654;23.316;2022-11-09T00:46:33;44.67;;;28.63;;
29196;SDS011;62796;42.654;23.316;2022-11-09T00:48:59;47.00;;;29.00;;
29196;SDS011;62796;42.654;23.316;2022-11-09T00:51:24;45.35;;;27.10;;
29196;SDS011;62796;42.654;23.316;2022-11-09T00:53:49;42.97;;;26.05;;
29196;SDS011;62796;42.654;23.316;2022-11-09T00:56:18;46.03;;;28.27;;
29196;SDS011;62796;42.654;23.316;2022-11-09T00:58:44;41.88;;;26.67;;
29196;SDS011;62796;42.654;23.316;2022-11-09T01:01:16;46.67;;;26.80;;
29196;SDS011;62796;42.654;23.316;2022-11-09T01:03:42;46.58;;;28.20;;
29196;SDS011;62796;42.654;23.316;2022-11-09T01:06:08;44.35;;;26.92;;
29196;SDS011;62796;42.654;23.316;2022-11-09T01:08:48;44.33;;;27.05;;
29196;SDS011;62796;42.654;23.316;2022-11-09T01:11:14;49.90;;;28.73;;
29196;SDS011;62796;42.654;23.316;2022-11-09T01:13:41;42.95;;;27.42;;
29196;SDS011;62796;42.654;23.316;2022-11-09T01:16:09;45.90;;;28.30;;
29196;SDS011;62796;42.654;23.316;2022-11-09T01:18:39;44.60;;;27.15;;
29196;SDS011;62796;42.654;23.316;2022-11-09T01:21:06;47.75;;;27.70;;
29196;SDS011;62796;42.654;23.316;2022-11-09T01:23:33;45.83;;;26.60;;
29196;SDS011;62796;42.654;23.316;2022-11-09T01:25:59;45.22;;;26.58;;
29196;SDS011;62796;42.654;23.316;2022-11-09T01:28:28;42.03;;;27.55;;
29196;SDS011;62796;42.654;23.316;2022-11-09T01:30:54;42.70;;;27.75;;
29196;SDS011;62796;42.654;23.316;2022-11-09T01:33:19;46.70;;;27.75;;
29196;SDS011;62796;42.654;23.316;2022-11-09T01:35:45;49.72;;;27.38;;
29196;SDS011;62796;42.654;23.316;2022-11-09T01:38:11;42.53;;;26.92;;
29196;SDS011;62796;42.654;23.316;2022-11-09T01:40:37;43.65;;;26.52;;
29196;SDS011;62796;42.654;23.316;2022-11-09T01:43:16;43.80;;;27.02;;
29196;SDS011;62796;42.654;23.316;2022-11-09T01:45:46;46.08;;;27.55;;
29196;SDS011;62796;42.654;23.316;2022-11-09T01:48:17;46.35;;;27.77;;
29196;SDS011;62796;42.654;23.316;2022-11-09T01:50:57;48.50;;;28.85;;
29196;SDS011;62796;42.654;23.316;2022-11-09T01:53:28;45.60;;;27.95;;
29196;SDS011;62796;42.654;23.316;2022-11-09T01:55:56;44.28;;;27.63;;
29196;SDS011;62796;42.654;23.316;2022-11-09T01:58:48;46.67;;;28.08;;
29196;SDS011;62796;42.654;23.316;2022-11-09T02:01:14;46.45;;;27.67;;
29196;SDS011;62796;42.654;23.316;2022-11-09T02:03:43;44.10;;;26.95;;
29196;SDS011;62796;42.654;23.316;2022-11-09T02:06:21;43.65;;;26.70;;
29196;SDS011;62796;42.654;23.316;2022-11-09T02:08:52;47.38;;;28.92;;
29196;SDS011;62796;42.654;23.316;2022-11-09T02:11:21;45.95;;;26.08;;
29196;SDS011;62796;42.654;23.316;2022-11-09T02:13:50;43.97;;;27.50;;
29196;SDS011;62796;42.654;23.316;2022-11-09T02:16:19;49.35;;;27.23;;
29196;SDS011;62796;42.654;23.316;2022-11-09T02:18:50;43.28;;;26.48;;
29196;SDS011;62796;42.654;23.316;2022-11-09T02:21:18;45.40;;;28.02;;
29196;SDS011;62796;42.654;23.316;2022-11-09T02:23:44;50.45;;;27.02;;
29196;SDS011;62796;42.654;23.316;2022-11-09T02:26:12;45.00;;;27.23;;
29196;SDS011;62796;42.654;23.316;2022-11-09T02:28:41;47.15;;;28.33;;
29196;SDS011;62796;42.654;23.316;2022-11-09T02:31:07;51.08;;;28.92;;
29196;SDS011;62796;42.654;23.316;2022-11-09T02:33:42;52.20;;;29.08;;
29196;SDS011;62796;42.654;23.316;2022-11-09T02:36:28;44.60;;;27.65;;
29196;SDS011;62796;42.654;23.316;2022-11-09T02:38:54;48.38;;;28.23;;
29196;SDS011;62796;42.654;23.316;2022-11-09T02:41:21;48.20;;;28.02;;
29196;SDS011;62796;42.654;23.316;2022-11-09T02:43:48;44.88;;;28.05;;
29196;SDS011;62796;42.654;23.316;2022-11-09T02:46:24;45.67;;;27.83;;
29196;SDS011;62796;42.654;23.316;2022-11-09T02:48:57;46.63;;;28.90;;
29196;SDS011;62796;42.654;23.316;2022-11-09T02:51:23;47.85;;;30.35;;
29196;SDS011;62796;42.654;23.316;2022-11-09T02:53:48;50.33;;;30.10;;
29196;SDS011;62796;42.654;23.316;2022-11-09T02:56:14;47.28;;;30.17;;
29196;SDS011;62796;42.654;23.316;2022-11-09T02:58:39;54.25;;;31.67;;
29196;SDS011;62796;42.654;23.316;2022-11-09T03:01:04;48.95;;;30.52;;
29196;SDS011;62796;42.654;23.316;2022-11-09T03:03:30;51.45;;;30.77;;
29196;SDS011;62796;42.654;23.316;2022-11-09T03:05:56;45.55;;;28.88;;
29196;SDS011;62796;42.654;23.316;2022-11-09T03:08:21;49.22;;;30.33;;
29196;SDS011;62796;42.654;23.316;2022-11-09T03:10:46;51.05;;;30.50;;
29196;SDS011;62796;42.654;23.316;2022-11-09T03:13:12;46.80;;;30.58;;
29196;SDS011;62796;42.654;23.316;2022-11-09T03:15:37;43.47;;;27.92;;
29196;SDS011;62796;42.654;23.316;2022-11-09T03:18:03;46.05;;;29.50;;
29196;SDS011;62796;42.654;23.316;2022-11-09T03:20:28;44.80;;;27.73;;
29196;SDS011;62796;42.654;23.316;2022-11-09T03:22:57;45.75;;;26.42;;
29196;SDS011;62796;42.654;23.316;2022-11-09T03:25:23;44.58;;;28.10;;
29196;SDS011;62796;42.654;23.316;2022-11-09T03:27:49;43.25;;;26.25;;
29196;SDS011;62796;42.654;23.316;2022-11-09T03:30:15;44.45;;;27.80;;
29196;SDS011;62796;42.654;23.316;2022-11-09T03:32:43;45.60;;;27.25;;
29196;SDS011;62796;42.654;23.316;2022-11-09T03:35:08;42.78;;;25.33;;
29196;SDS011;62796;42.654;23.316;2022-11-09T03:37:34;47.17;;;26.05;;
29196;SDS011;62796;42.654;23.316;2022-11-09T03:40:00;43.47;;;25.50;;
29196;SDS011;62796;42.654;23.316;2022-11-09T03:42:25;51.20;;;27.00;;
29196;SDS011;62796;42.654;23.316;2022-11-09T03:44:51;50.53;;;27.92;;
29196;SDS011;62796;42.654;23.316;2022-11-09T03:47:16;49.10;;;28.20;;
29196;SDS011;62796;42.654;23.316;2022-11-09T03:49:41;47.08;;;28.42;;
29196;SDS011;62796;42.654;23.316;2022-11-09T03:52:07;47.75;;;27.00;;
29196;SDS011;62796;42.654;23.316;2022-11-09T03:54:32;48.53;;;26.05;;
29196;SDS011;62796;42.654;23.316;2022-11-09T03:56:58;50.85;;;27.85;;
29196;SDS011;62796;42.654;23.316;2022-11-09T03:59:23;51.35;;;28.33;;
29196;SDS011;62796;42.654;23.316;2022-11-09T04:01:48;50.10;;;28.08;;
29196;SDS011;62796;42.654;23.316;2022-11-09T04:04:14;48.47;;;27.42;;
29196;SDS011;62796;42.654;23.316;2022-11-09T04:06:39;45.47;;;27.27;;
29196;SDS011;62796;42.654;23.316;2022-11-09T04:09:05;45.65;;;27.13;;
29196;SDS011;62796;42.654;23.316;2022-11-09T04:11:30;48.00;;;27.15;;
29196;SDS011;62796;42.654;23.316;2022-11-09T04:13:55;49.20;;;27.23;;
29196;SDS011;62796;42.654;23.316;2022-11-09T04:16:21;53.20;;;27.30;;
29196;SDS011;62796;42.654;23.316;2022-11-09T04:18:46;47.50;;;27.60;;
29196;SDS011;62796;42.654;23.316;2022-11-09T04:21:12;44.90;;;27.05;;
29196;SDS011;62796;42.654;23.316;2022-11-09T04:23:37;50.63;;;27.70;;
29196;SDS011;62796;42.654;23.316;2022-11-09T04:26:02;47.78;;;28.15;;
29196;SDS011;62796;42.654;23.316;2022-11-09T04:28:28;51.97;;;28.10;;
29196;SDS011;62796;42.654;23.316;2022-11-09T04:30:53;68.90;;;29.52;;
29196;SDS011;62796;42.654;23.316;2022-11-09T04:33:23;52.65;;;26.98;;
29196;SDS011;62796;42.654;23.316;2022-11-09T04:35:48;47.47;;;27.27;;
29196;SDS011;62796;42.654;23.316;2022-11-09T04:38:14;45.20;;;26.83;;
29196;SDS011;62796;42.654;23.316;2022-11-09T04:40:39;44.25;;;26.70;;
29196;SDS011;62796;42.654;23.316;2022-11-09T04:43:06;50.00;;;27.92;;
29196;SDS011;62796;42.654;23.316;2022-11-09T04:45:34;43.60;;;26.10;;
29196;SDS011;62796;42.654;23.316;2022-11-09T04:48:00;50.65;;;25.88;;
29196;SDS011;62796;42.654;23.316;2022-11-09T04:50:27;45.58;;;27.33;;
29196;SDS011;62796;42.654;23.316;2022-11-09T04:52:53;46.05;;;26.98;;
29196;SDS011;62796;42.654;23.316;2022-11-09T04:55:19;46.90;;;26.20;;
29196;SDS011;62796;42.654;23.316;2022-11-09T04:57:45;54.30;;;26.75;;
29196;SDS011;62796;42.654;23.316;2022-11-09T05:00:11;51.50;;;28.08;;
29196;SDS011;62796;42.654;23.316;2022-11-09T05:02:36;50.63;;;28.27;;
29196;SDS011;62796;42.654;23.316;2022-11-09T05:05:02;53.72;;;28.00;;
29196;SDS011;62796;42.654;23.316;2022-11-09T05:07:28;58.78;;;29.05;;
29196;SDS011;62796;42.654;23.316;2022-11-09T05:09:53;56.53;;;29.00;;
29196;SDS011;62796;42.654;23.316;2022-11-09T05:12:18;49.08;;;28.60;;
29196;SDS011;62796;42.654;23.316;2022-11-09T05:14:44;58.63;;;29.48;;
29196;SDS011;62796;42.654;23.316;2022-11-09T05:17:09;56.05;;;30.77;;
29196;SDS011;62796;42.654;23.316;2022-11-09T05:19:34;48.67;;;27.45;;
29196;SDS011;62796;42.654;23.316;2022-11-09T05:22:00;49.03;;;29.02;;
29196;SDS011;62796;42.654;23.316;2022-11-09T05:24:45;55.45;;;29.38;;
29196;SDS011;62796;42.654;23.316;2022-11-09T05:27:11;59.17;;;30.05;;
29196;SDS011;62796;42.654;23.316;2022-11-09T05:29:36;65.90;;;29.92;;
29196;SDS011;62796;42.654;23.316;2022-11-09T05:32:02;66.47;;;31.20;;
29196;SDS011;62796;42.654;23.316;2022-11-09T05:34:27;68.57;;;32.65;;
29196;SDS011;62796;42.654;23.316;2022-11-09T05:36:52;64.35;;;33.13;;
29196;SDS011;62796;42.654;23.316;2022-11-09T05:39:18;72.95;;;31.42;;
29196;SDS011;62796;42.654;23.316;2022-11-09T05:41:43;80.80;;;32.58;;
29196;SDS011;62796;42.654;23.316;2022-11-09T05:44:09;68.82;;;32.10;;
29196;SDS011;62796;42.654;23.316;2022-11-09T05:46:34;63.92;;;31.60;;
29196;SDS011;62796;42.654;23.316;2022-11-09T05:48:59;78.25;;;33.13;;
29196;SDS011;62796;42.654;23.316;2022-11-09T05:51:25;62.83;;;31.40;;
29196;SDS011;62796;42.654;23.316;2022-11-09T05:53:50;76.03;;;33.15;;
29196;SDS011;62796;42.654;23.316;2022-11-09T05:56:16;68.95;;;32.90;;
29196;SDS011;62796;42.654;23.316;2022-11-09T05:58:42;91.18;;;39.60;;
29196;SDS011;62796;42.654;23.316;2022-11-09T06:01:08;102.15;;;41.63;;
29196;SDS011;62796;42.654;23.316;2022-11-09T06:03:35;82.68;;;37.95;;
29196;SDS011;62796;42.654;23.316;2022-11-09T06:06:02;86.53;;;36.28;;
29196;SDS011;62796;42.654;23.316;2022-11-09T06:08:29;100.20;;;36.90;;
29196;SDS011;62796;42.654;23.316;2022-11-09T06:11:01;89.70;;;38.28;;
29196;SDS011;62796;42.654;23.316;2022-11-09T06:15:55;78.43;;;35.85;;
29196;SDS011;62796;42.654;23.316;2022-11-09T06:18:26;82.05;;;34.63;;
29196;SDS011;62796;42.654;23.316;2022-11-09T06:20:54;79.22;;;34.70;;
29196;SDS011;62796;42.654;23.316;2022-11-09T06:23:21;76.07;;;32.05;;
29196;SDS011;62796;42.654;23.316;2022-11-09T06:26:00;55.80;;;30.90;;
29196;SDS011;62796;42.654;23.316;2022-11-09T06:28:27;62.83;;;30.08;;
29196;SDS011;62796;42.654;23.316;2022-11-09T06:30:57;57.97;;;31.48;;
29196;SDS011;62796;42.654;23.316;2022-11-09T06:33:23;44.10;;;28.58;;
29196;SDS011;62796;42.654;23.316;2022-11-09T06:35:49;59.97;;;30.05;;
29196;SDS011;62796;42.654;23.316;2022-11-09T06:38:14;49.67;;;29.17;;
29196;SDS011;62796;42.654;23.316;2022-11-09T06:40:40;53.42;;;29.35;;
29196;SDS011;62796;42.654;23.316;2022-11-09T06:43:05;54.38;;;30.67;;
29196;SDS011;62796;42.654;23.316;2022-11-09T06:45:31;48.95;;;29.95;;
29196;SDS011;62796;42.654;23.316;2022-11-09T06:47:57;54.22;;;31.42;;
29196;SDS011;62796;42.654;23.316;2022-11-09T06:50:24;63.13;;;31.45;;
29196;SDS011;62796;42.654;23.316;2022-11-09T06:52:58;61.97;;;32.15;;
29196;SDS011;62796;42.654;23.316;2022-11-09T06:55:25;58.25;;;30.05;;
29196;SDS011;62796;42.654;23.316;2022-11-09T06:57:52;55.35;;;29.73;;
29196;SDS011;62796;42.654;23.316;2022-11-09T07:00:18;52.38;;;29.45;;
29196;SDS011;62796;42.654;23.316;2022-11-09T07:02:44;53.35;;;29.55;;
29196;SDS011;62796;42.654;23.316;2022-11-09T07:05:09;46.58;;;28.95;;
29196;SDS011;62796;42.654;23.316;2022-11-09T07:07:35;46.10;;;28.38;;
29196;SDS011;62796;42.654;23.316;2022-11-09T07:10:00;55.03;;;30.10;;
29196;SDS011;62796;42.654;23.316;2022-11-09T07:12:25;53.75;;;32.17;;
29196;SDS011;62796;42.654;23.316;2022-11-09T07:14:52;55.63;;;32.58;;
29196;SDS011;62796;42.654;23.316;2022-11-09T07:17:18;52.58;;;29.38;;
29196;SDS011;62796;42.654;23.316;2022-11-09T07:19:43;50.47;;;28.55;;
29196;SDS011;62796;42.654;23.316;2022-11-09T07:22:09;55.20;;;28.90;;
29196;SDS011;62796;42.654;23.316;2022-11-09T07:24:34;46.90;;;27.73;;
29196;SDS011;62796;42.654;23.316;2022-11-09T07:27:00;49.95;;;29.10;;
29196;SDS011;62796;42.654;23.316;2022-11-09T07:29:25;45.67;;;29.23;;
29196;SDS011;62796;42.654;23.316;2022-11-09T07:31:50;48.28;;;27.73;;
29196;SDS011;62796;42.654;23.316;2022-11-09T07:34:16;46.75;;;28.13;;
29196;SDS011;62796;42.654;23.316;2022-11-09T07:36:41;49.10;;;30.95;;
29196;SDS011;62796;42.654;23.316;2022-11-09T07:39:07;46.40;;;28.60;;
29196;SDS011;62796;42.654;23.316;2022-11-09T07:41:32;52.65;;;30.67;;
29196;SDS011;62796;42.654;23.316;2022-11-09T07:43:58;43.05;;;27.63;;
29196;SDS011;62796;42.654;23.316;2022-11-09T07:46:23;51.15;;;29.58;;
29196;SDS011;62796;42.654;23.316;2022-11-09T07:48:48;46.58;;;29.42;;
29196;SDS011;62796;42.654;23.316;2022-11-09T07:51:14;51.17;;;30.05;;
29196;SDS011;62796;42.654;23.316;2022-11-09T07:53:39;50.58;;;29.40;;
29196;SDS011;62796;42.654;23.316;2022-11-09T07:56:05;50.45;;;29.95;;
29196;SDS011;62796;42.654;23.316;2022-11-09T07:58:31;46.75;;;29.15;;
29196;SDS011;62796;42.654;23.316;2022-11-09T08:00:58;54.00;;;29.13;;
29196;SDS011;62796;42.654;23.316;2022-11-09T08:03:23;49.28;;;28.95;;
29196;SDS011;62796;42.654;23.316;2022-11-09T08:05:49;49.75;;;29.98;;
29196;SDS011;62796;42.654;23.316;2022-11-09T08:08:15;47.20;;;28.90;;
29196;SDS011;62796;42.654;23.316;2022-11-09T08:10:41;42.97;;;27.67;;
29196;SDS011;62796;42.654;23.316;2022-11-09T08:13:12;46.53;;;27.48;;
29196;SDS011;62796;42.654;23.316;2022-11-09T08:15:38;37.80;;;27.25;;
29196;SDS011;62796;42.654;23.316;2022-11-09T08:18:12;42.72;;;26.70;;
29196;SDS011;62796;42.654;23.316;2022-11-09T08:20:39;39.53;;;26.15;;
29196;SDS011;62796;42.654;23.316;2022-11-09T08:23:05;41.35;;;26.55;;
29196;SDS011;62796;42.654;23.316;2022-11-09T08:25:33;64.82;;;27.52;;
29196;SDS011;62796;42.654;23.316;2022-11-09T08:27:59;58.25;;;28.10;;
29196;SDS011;62796;42.654;23.316;2022-11-09T08:30:25;56.58;;;29.08;;
29196;SDS011;62796;42.654;23.316;2022-11-09T08:32:51;49.75;;;30.92;;
29196;SDS011;62796;42.654;23.316;2022-11-09T08:35:18;46.70;;;29.95;;
29196;SDS011;62796;42.654;23.316;2022-11-09T08:37:48;42.97;;;28.65;;
29196;SDS011;62796;42.654;23.316;2022-11-09T08:40:15;39.20;;;26.48;;
29196;SDS011;62796;42.654;23.316;2022-11-09T08:42:42;43.13;;;26.20;;
29196;SDS011;62796;42.654;23.316;2022-11-09T08:45:08;48.95;;;31.27;;
29196;SDS011;62796;42.654;23.316;2022-11-09T08:47:35;40.50;;;26.63;;
29196;SDS011;62796;42.654;23.316;2022-11-09T08:50:01;37.22;;;27.92;;
29196;SDS011;62796;42.654;23.316;2022-11-09T08:52:28;43.08;;;28.35;;
29196;SDS011;62796;42.654;23.316;2022-11-09T08:54:54;48.85;;;28.10;;
29196;SDS011;62796;42.654;23.316;2022-11-09T08:57:20;38.20;;;28.00;;
29196;SDS011;62796;42.654;23.316;2022-11-09T08:59:45;40.08;;;26.60;;
29196;SDS011;62796;42.654;23.316;2022-11-09T09:02:11;47.35;;;27.17;;
29196;SDS011;62796;42.654;23.316;2022-11-09T09:04:37;38.00;;;26.95;;
29196;SDS011;62796;42.654;23.316;2022-11-09T09:07:03;41.40;;;28.65;;
29196;SDS011;62796;42.654;23.316;2022-11-09T09:09:29;36.92;;;25.98;;
29196;SDS011;62796;42.654;23.316;2022-11-09T09:11:55;34.08;;;26.05;;
29196;SDS011;62796;42.654;23.316;2022-11-09T09:14:20;37.10;;;26.08;;
29196;SDS011;62796;42.654;23.316;2022-11-09T09:16:46;40.65;;;25.73;;
29196;SDS011;62796;42.654;23.316;2022-11-09T09:19:12;38.25;;;26.95;;
29196;SDS011;62796;42.654;23.316;2022-11-09T09:21:37;38.90;;;26.27;;
29196;SDS011;62796;42.654;23.316;2022-11-09T09:24:03;35.67;;;25.63;;
29196;SDS011;62796;42.654;23.316;2022-11-09T09:26:28;41.88;;;25.67;;
29196;SDS011;62796;42.654;23.316;2022-11-09T09:28:54;38.22;;;25.95;;
29196;SDS011;62796;42.654;23.316;2022-11-09T09:31:19;39.83;;;25.02;;
29196;SDS011;62796;42.654;23.316;2022-11-09T09:33:45;39.05;;;26.60;;
29196;SDS011;62796;42.654;23.316;2022-11-09T09:36:15;36.33;;;25.90;;
29196;SDS011;62796;42.654;23.316;2022-11-09T09:38:42;41.25;;;26.80;;
29196;SDS011;62796;42.654;23.316;2022-11-09T09:41:07;42.78;;;28.38;;
29196;SDS011;62796;42.654;23.316;2022-11-09T09:43:47;35.30;;;24.98;;
29196;SDS011;62796;42.654;23.316;2022-11-09T09:48:51;35.58;;;24.30;;
29196;SDS011;62796;42.654;23.316;2022-11-09T09:51:54;36.47;;;25.13;;
29196;SDS011;62796;42.654;23.316;2022-11-09T09:54:33;38.55;;;25.20;;
29196;SDS011;62796;42.654;23.316;2022-11-09T09:57:17;42.35;;;24.42;;
29196;SDS011;62796;42.654;23.316;2022-11-09T09:59:47;34.88;;;24.75;;
29196;SDS011;62796;42.654;23.316;2022-11-09T10:04:43;34.10;;;23.17;;
29196;SDS011;62796;42.654;23.316;2022-11-09T10:23:35;40.33;;;27.15;;
29196;SDS011;62796;42.654;23.316;2022-11-09T10:26:04;45.75;;;29.20;;
29196;SDS011;62796;42.654;23.316;2022-11-09T10:28:38;51.47;;;28.80;;
29196;SDS011;62796;42.654;23.316;2022-11-09T10:31:11;37.88;;;26.08;;
29196;SDS011;62796;42.654;23.316;2022-11-09T10:33:44;43.17;;;27.25;;
29196;SDS011;62796;42.654;23.316;2022-11-09T10:39:03;39.30;;;27.70;;
29196;SDS011;62796;42.654;23.316;2022-11-09T10:41:33;41.88;;;29.08;;
29196;SDS011;62796;42.654;23.316;2022-11-09T10:44:08;41.53;;;28.60;;
29196;SDS011;62796;42.654;23.316;2022-11-09T10:49:26;40.42;;;30.40;;
29196;SDS011;62796;42.654;23.316;2022-11-09T10:51:51;37.22;;;30.23;;
29196;SDS011;62796;42.654;23.316;2022-11-09T10:56:43;47.22;;;29.63;;
29196;SDS011;62796;42.654;23.316;2022-11-09T11:02:36;42.35;;;29.08;;
29196;SDS011;62796;42.654;23.316;2022-11-09T11:07:34;48.42;;;30.13;;
29196;SDS011;62796;42.654;23.316;2022-11-09T11:12:45;36.55;;;26.35;;
29196;SDS011;62796;42.654;23.316;2022-11-09T11:18:15;37.10;;;26.65;;
29196;SDS011;62796;42.654;23.316;2022-11-09T11:20:46;45.53;;;28.17;;
29196;SDS011;62796;42.654;23.316;2022-11-09T11:23:13;41.25;;;27.50;;
29196;SDS011;62796;42.654;23.316;2022-11-09T11:26:11;43.70;;;27.08;;
29196;SDS011;62796;42.654;23.316;2022-11-09T11:28:52;38.03;;;27.35;;
29196;SDS011;62796;42.654;23.316;2022-11-09T11:31:24;85.55;;;64.20;;
29196;SDS011;62796;42.654;23.316;2022-11-09T11:33:50;60.95;;;43.90;;
29196;SDS011;62796;42.654;23.316;2022-11-09T11:52:49;37.80;;;28.13;;
29196;SDS011;62796;42.654;23.316;2022-11-09T12:04:11;34.35;;;24.55;;
29196;SDS011;62796;42.654;23.316;2022-11-09T12:12:22;32.88;;;25.42;;
29196;SDS011;62796;42.654;23.316;2022-11-09T12:17:53;35.92;;;26.35;;
29196;SDS011;62796;42.654;23.316;2022-11-09T12:25:49;32.22;;;24.00;;
29196;SDS011;62796;42.654;23.316;2022-11-09T12:33:44;34.53;;;25.17;;
29196;SDS011;62796;42.654;23.316;2022-11-09T12:36:14;28.60;;;23.92;;
29196;SDS011;62796;42.654;23.316;2022-11-09T12:41:32;30.90;;;22.95;;
29196;SDS011;62796;42.654;23.316;2022-11-09T12:44:03;36.78;;;23.27;;
29196;SDS011;62796;42.654;23.316;2022-11-09T12:47:08;34.22;;;25.25;;
29196;SDS011;62796;42.654;23.316;2022-11-09T12:49:40;36.28;;;25.40;;
29196;SDS011;62796;42.654;23.316;2022-11-09T12:52:12;36.90;;;26.52;;
29196;SDS011;62796;42.654;23.316;2022-11-09T12:54:43;36.67;;;24.30;;
29196;SDS011;62796;42.654;23.316;2022-11-09T12:57:32;42.28;;;25.13;;
29196;SDS011;62796;42.654;23.316;2022-11-09T12:59:58;35.97;;;23.13;;
29196;SDS011;62796;42.654;23.316;2022-11-09T13:02:28;39.92;;;24.17;;
29196;SDS011;62796;42.654;23.316;2022-11-09T13:05:02;34.45;;;23.20;;
29196;SDS011;62796;42.654;23.316;2022-11-09T13:07:40;40.00;;;25.75;;
29196;SDS011;62796;42.654;23.316;2022-11-09T13:10:32;45.95;;;28.25;;
29196;SDS011;62796;42.654;23.316;2022-11-09T13:13:04;34.63;;;24.13;;
29196;SDS011;62796;42.654;23.316;2022-11-09T13:15:36;35.17;;;24.05;;
29196;SDS011;62796;42.654;23.316;2022-11-09T13:18:24;28.60;;;21.58;;
29196;SDS011;62796;42.654;23.316;2022-11-09T13:23:46;25.42;;;20.42;;
29196;SDS011;62796;42.654;23.316;2022-11-09T13:45:42;38.00;;;24.00;;
29196;SDS011;62796;42.654;23.316;2022-11-09T13:50:54;41.33;;;27.10;;
29196;SDS011;62796;42.654;23.316;2022-11-09T13:53:49;43.08;;;24.75;;
29196;SDS011;62796;42.654;23.316;2022-11-09T13:59:04;36.53;;;24.35;;
29196;SDS011;62796;42.654;23.316;2022-11-09T14:01:54;53.60;;;27.67;;
29196;SDS011;62796;42.654;23.316;2022-11-09T14:04:22;48.88;;;26.70;;
29196;SDS011;62796;42.654;23.316;2022-11-09T14:07:03;48.78;;;28.27;;
29196;SDS011;62796;42.654;23.316;2022-11-09T14:21:48;52.53;;;35.22;;
29196;SDS011;62796;42.654;23.316;2022-11-09T14:29:52;64.82;;;36.35;;
29196;SDS011;62796;42.654;23.316;2022-11-09T14:37:45;60.30;;;36.97;;
29196;SDS011;62796;42.654;23.316;2022-11-09T14:40:22;61.35;;;35.70;;
29196;SDS011;62796;42.654;23.316;2022-11-09T14:45:20;57.60;;;34.70;;
29196;SDS011;62796;42.654;23.316;2022-11-09T14:47:47;52.83;;;35.80;;
29196;SDS011;62796;42.654;23.316;2022-11-09T14:50:25;65.80;;;40.70;;
29196;SDS011;62796;42.654;23.316;2022-11-09T14:52:54;102.75;;;54.60;;
29196;SDS011;62796;42.654;23.316;2022-11-09T14:55:21;83.47;;;47.40;;
29196;SDS011;62796;42.654;23.316;2022-11-09T14:57:48;75.38;;;44.33;;
29196;SDS011;62796;42.654;23.316;2022-11-09T15:00:29;69.75;;;41.53;;
29196;SDS011;62796;42.654;23.316;2022-11-09T15:02:57;65.03;;;38.92;;
29196;SDS011;62796;42.654;23.316;2022-11-09T15:05:34;58.30;;;38.15;;
29196;SDS011;62796;42.654;23.316;2022-11-09T15:08:03;59.38;;;35.88;;
29196;SDS011;62796;42.654;23.316;2022-11-09T15:10:46;59.28;;;36.58;;
29196;SDS011;62796;42.654;23.316;2022-11-09T15:13:13;67.72;;;38.25;;
29196;SDS011;62796;42.654;23.316;2022-11-09T15:15:38;56.67;;;38.30;;
29196;SDS011;62796;42.654;23.316;2022-11-09T15:18:04;58.40;;;38.17;;
29196;SDS011;62796;42.654;23.316;2022-11-09T15:20:32;55.33;;;38.08;;
29196;SDS011;62796;42.654;23.316;2022-11-09T15:22:59;55.00;;;36.15;;
29196;SDS011;62796;42.654;23.316;2022-11-09T15:30:38;56.10;;;34.35;;
29196;SDS011;62796;42.654;23.316;2022-11-09T15:33:11;63.58;;;35.08;;
29196;SDS011;62796;42.654;23.316;2022-11-09T15:35:47;51.58;;;35.22;;
29196;SDS011;62796;42.654;23.316;2022-11-09T15:38:27;53.88;;;36.25;;
29196;SDS011;62796;42.654;23.316;2022-11-09T15:41:02;58.92;;;35.53;;
29196;SDS011;62796;42.654;23.316;2022-11-09T15:43:34;51.72;;;35.75;;
29196;SDS011;62796;42.654;23.316;2022-11-09T15:45:59;56.55;;;34.25;;
29196;SDS011;62796;42.654;23.316;2022-11-09T15:48:25;69.53;;;38.25;;
29196;SDS011;62796;42.654;23.316;2022-11-09T15:50:51;63.08;;;38.38;;
29196;SDS011;62796;42.654;23.316;2022-11-09T15:53:16;65.07;;;38.08;;
29196;SDS011;62796;42.654;23.316;2022-11-09T15:55:42;66.43;;;36.58;;
29196;SDS011;62796;42.654;23.316;2022-11-09T15:58:09;62.65;;;37.08;;
29196;SDS011;62796;42.654;23.316;2022-11-09T16:00:38;57.17;;;35.33;;
29196;SDS011;62796;42.654;23.316;2022-11-09T16:03:03;47.83;;;31.80;;
29196;SDS011;62796;42.654;23.316;2022-11-09T16:05:29;48.42;;;32.22;;
29196;SDS011;62796;42.654;23.316;2022-11-09T16:07:54;56.92;;;33.40;;
29196;SDS011;62796;42.654;23.316;2022-11-09T16:10:20;46.97;;;32.10;;
29196;SDS011;62796;42.654;23.316;2022-11-09T16:12:51;58.83;;;34.25;;
29196;SDS011;62796;42.654;23.316;2022-11-09T16:15:21;75.10;;;45.20;;
29196;SDS011;62796;42.654;23.316;2022-11-09T16:17:48;59.90;;;35.17;;
29196;SDS011;62796;42.654;23.316;2022-11-09T16:20:17;58.35;;;35.88;;
29196;SDS011;62796;42.654;23.316;2022-11-09T16:22:44;61.35;;;38.45;;
29196;SDS011;62796;42.654;23.316;2022-11-09T16:25:09;56.33;;;35.75;;
29196;SDS011;62796;42.654;23.316;2022-11-09T16:27:35;51.30;;;34.10;;
29196;SDS011;62796;42.654;23.316;2022-11-09T16:30:01;57.63;;;35.17;;
29196;SDS011;62796;42.654;23.316;2022-11-09T16:32:27;76.40;;;44.05;;
29196;SDS011;62796;42.654;23.316;2022-11-09T16:34:53;74.32;;;45.90;;
29196;SDS011;62796;42.654;23.316;2022-11-09T16:37:19;82.22;;;43.17;;
29196;SDS011;62796;42.654;23.316;2022-11-09T16:39:45;70.85;;;40.75;;
29196;SDS011;62796;42.654;23.316;2022-11-09T16:42:11;63.17;;;37.58;;
29196;SDS011;62796;42.654;23.316;2022-11-09T16:44:40;66.07;;;37.85;;